Terminal Aerodrome Forecast
Issued by NWS

Home | Current Version | Previous Version | Text Only | Print | Product List | Glossary On
Versions: 1 2 3 4 5 6 7 8 9 10 11 12 13 14 15
000
FTUS43 KIWX 260159 AAA
TAFSBN
TAF AMD
KSBN 260159Z 2602/2624 28007KT P6SM SCT060 BKN090
      TEMPO 2602/2603 28010G20KT 6SM SHRA BKN040
     FM260900 25006KT P6SM SKC
     FM261400 29012G22KT P6SM BKN045=

USA.gov is the U.S. government's official web portal to all federal, state and local government web resources and services.